Aérodrome :
LOGIN :

S'inscrire | Disclaimer

   EN    FR    IT 

 










Légende :    VFR   VFR Marginal   IFR   IFR Intensif   IFR Très Intensif
Visi : 
Plafond : 
>= 8 km
>= 3000ft
5 à 8 km
1000 à 3000 ft
1500m à 5 km
500 à 1000 ft
800 à 1500m
200 à 500 ft
< 800m
< 200 ft
Symboles :   Orages  Brouillard  Fortes neiges  Fortes précipitations  Vent > 20 kt
SIGMETs :   Divers  Orages  Givrage  Turbulence  Onde Orograph.  Cendres Volcan.






- Altitude de l'aérodrome : 74 ft
- Code IATA : MRS


LFML - Marseille / Marignane

DERNIER METAR :
  • 252230Z AUTO 31008KT CAVOK 21/12 Q1023 NOSIG

METARs EXPIRÉS :
  • 252200Z AUTO 30011KT CAVOK 21/13 Q1023 NOSIG
  • 252130Z AUTO 30010KT CAVOK 21/12 Q1024 NOSIG
  • 252100Z AUTO 30012KT CAVOK 22/13 Q1024 NOSIG
  • 252030Z AUTO 29013KT CAVOK 23/12 Q1024 BECMG VRB03KT
  • 252000Z AUTO 31012KT CAVOK 23/12 Q1023 NOSIG

TAF TAF LFML
Valide du 25 à 21h jusqu'au 27 à 03h UTC


252000Z 2521/2703 VRB03KT CAVOK TX28/2615Z TN17/2606Z
ATIS : +33 4 42 31 15 15



MET'MAP, la Météo Aéronautique d'un coup d'oeil ! - Copyright ORBIFLY Décembre 2007 - Disclaimer

ORBIFLY MET'MAP TEAM :

Programmation & Développement : Alexandra Zaïnal
Sur une idée originale de : Baudouin d'Aumeries
Assistance à la programmation : Marc-Olivier Méhu
Soutien technique & logistique : Manuel Goepfert

Contact : metmap@orbifly.com




SOURCES & CREDITS :

   NOAA